Athol, MA

11:45 PM EDT on October 20, 2014 (GMT -0400)
Maggies Farm | Change Station
CLOSE
Current Station
Personal Weather Station
Location: Orange, MA
Elevation: 850 ft
Nearby Weather Stations

Elev 850 ft 42.62 °N, 72.25 °W | Updated 2 minutes ago

Mostly Cloudy
Mostly Cloudy
43.0 °F
Feels Like 43 °F
N
0.0
Wind Variable Wind from SE
Gusts 0.0 mph

Today
High -- | Low -- °F
--% Chance of Precip.
Yesterday
High -- | Low -- °F
Precip. -- in
7:07 AM 5:58 PM
Waning Crescent, 7% visible
Pressure 30.00 in
Visibility 10.0 miles
Clouds Scattered Clouds 12000 ft
Windchill 43 °F
Dew Point 40 °F
Humidity 89%
Rainfall 0.00 in
Snow Depth Not available.
UV 0 out of 12
Pollen 1.40 out of 12
Air Quality Not available.
Flu Activity No Activity
METAR KORE 210252Z AUTO 00000KT 10SM SCT120 07/04 A2998 RMK AO2 SLP157 T00670039 53002

More Conditions Fewer Conditions

Pressure 30.00 in
Visibility 10.0 miles
Clouds Scattered Clouds 12000 ft
Windchill 43 °F
Dew Point 40 °F
Humidity 89%
Rainfall 0.00 in
Snow Depth Not available.
UV 0 out of 12
Pollen 1.40 out of 12
Air Quality Not available.
Flu Activity No Activity
METAR KORE 210252Z AUTO 00000KT 10SM SCT120 07/04 A2998 RMK AO2 SLP157 T00670039 53002

More Conditions Fewer Conditions

10-Day Weather Forecast

Almanac

Astronomy

Oct. 20, 2014 Rise Set
Actual Time 7:07 AM EDT 5:58 PM EDT
Civil Twilight 6:39 AM EDT 6:27 PM EDT
Nautical Twilight 6:06 AM EDT 7:00 PM EDT
Astronomical Twilight 5:33 AM EDT 7:32 PM EDT
Moon 3:49 AM EDT (10/20) 4:23 PM EDT (10/20)
Length of Visible Light 11h 48m
Length of Day
10h 50m
Tomorrow will be 2m 43s shorter.
Waning Crescent, 7% of the Moon is Illuminated
Today
Waning Crescent
Oct 23
New
Oct 30
First Quarter
Nov 6
Full
Nov 14
Last Quarter

Today's Extremes

State Highs State Lows

Community

WunderPhotos

Upload Photos

1,763,594 photos uploaded!

Nearby

Air Quality

  Air Quality AQ Index Pollutant
Monday Good
PM2.5
Monday Good
OZONE
Tuesday Good
PM2.5
Wednesday Good
PM2.5
Thursday Good
PM2.5

Snow Depth

Station Depth Elevation
No new snow has been reported.

Earthquake Activity

City Distance Mag. Time & Date
No recent earthquake activity has been reported nearby.
Minimum magnitude displayed is 2.5.

Coastal Water Temperatures

Place Temperature
No Stations Reporting

Nearby Weather Stations